createdAt,value
2023-02-19T00:01:47.791Z,-8.95
2023-02-19T00:04:17.396Z,-8.95
2023-02-19T00:06:45.409Z,-8.93
2023-02-19T00:09:13.448Z,-8.98
2023-02-19T00:11:46.479Z,-8.99
2023-02-19T00:14:21.377Z,-8.94
2023-02-19T00:16:48.803Z,-8.93
2023-02-19T00:19:18.136Z,-8.94
2023-02-19T00:21:45.195Z,-8.93
2023-02-19T00:24:13.412Z,-8.96
2023-02-19T00:26:41.562Z,-8.99
2023-02-19T00:29:13.096Z,-9.02
2023-02-19T00:31:40.559Z,-9.05
2023-02-19T00:34:09.600Z,-9.08
2023-02-19T00:36:38.561Z,-9.05
2023-02-19T00:39:07.599Z,-9.01
2023-02-19T00:41:34.843Z,-8.99
2023-02-19T00:44:04.922Z,-9.03
2023-02-19T00:46:35.456Z,-9.06
2023-02-19T00:49:04.126Z,-9.00
2023-02-19T00:51:33.977Z,-9.02
2023-02-19T00:54:01.155Z,-9.02
2023-02-19T00:56:28.488Z,-9.00
2023-02-19T00:58:56.347Z,-9.02
2023-02-19T01:01:23.516Z,-9.08
2023-02-19T01:03:51.545Z,-9.04
2023-02-19T01:06:20.547Z,-9.05
2023-02-19T01:08:47.622Z,-9.05
2023-02-19T01:11:14.856Z,-9.05
2023-02-19T01:13:42.851Z,-9.10
2023-02-19T01:16:17.701Z,-9.16
2023-02-19T01:18:48.770Z,-9.15
2023-02-19T01:21:21.233Z,-9.17
2023-02-19T01:23:49.418Z,-9.13
2023-02-19T01:26:19.465Z,-9.13
2023-02-19T01:28:48.779Z,-9.16
2023-02-19T01:31:23.961Z,-9.16
2023-02-19T01:33:53.770Z,-9.14
2023-02-19T01:36:21.336Z,-9.10
2023-02-19T01:38:48.750Z,-9.09
2023-02-19T01:41:18.982Z,-9.08
2023-02-19T01:44:00.985Z,-9.08
2023-02-19T01:46:30.033Z,-9.07
2023-02-19T01:49:00.816Z,-9.04
2023-02-19T01:51:28.399Z,-8.98
2023-02-19T01:53:58.163Z,-8.99
2023-02-19T01:56:26.215Z,-8.96
2023-02-19T01:58:53.627Z,-9.01
2023-02-19T02:01:20.564Z,-9.06
2023-02-19T02:03:50.120Z,-9.10
2023-02-19T02:06:29.426Z,-9.09
2023-02-19T02:09:17.973Z,-9.09
2023-02-19T02:11:50.405Z,-9.07
2023-02-19T02:14:19.326Z,-9.11
2023-02-19T02:17:12.459Z,-9.11
2023-02-19T02:19:52.872Z,-9.08
2023-02-19T02:22:26.532Z,-9.12
2023-02-19T02:25:17.348Z,-9.13
2023-02-19T02:27:51.352Z,-9.14
2023-02-19T02:30:43.381Z,-9.10
2023-02-19T02:33:32.025Z,-9.12
2023-02-19T02:36:07.445Z,-9.10
2023-02-19T02:38:40.979Z,-9.10
2023-02-19T02:41:09.141Z,-9.15
2023-02-19T02:43:36.975Z,-9.20
2023-02-19T02:46:04.276Z,-9.16
2023-02-19T02:48:48.328Z,-9.17
2023-02-19T02:51:27.506Z,-9.18
2023-02-19T02:54:27.322Z,-9.12
2023-02-19T02:56:55.790Z,-9.13
2023-02-19T02:59:26.164Z,-9.14
2023-02-19T03:02:14.551Z,-9.16
2023-02-19T03:05:09.896Z,-9.13
2023-02-19T03:08:05.654Z,-9.17
2023-02-19T03:10:39.806Z,-9.11
2023-02-19T03:13:29.542Z,-9.11
2023-02-19T03:16:24.125Z,-9.19
2023-02-19T03:19:16.834Z,-9.18
2023-02-19T03:21:48.304Z,-9.15
2023-02-19T03:24:34.819Z,-9.12
2023-02-19T03:27:04.288Z,-9.08
2023-02-19T03:29:38.926Z,-9.14
2023-02-19T03:32:18.298Z,-9.14
2023-02-19T03:34:51.779Z,-9.16
2023-02-19T03:37:27.948Z,-9.20
2023-02-19T03:39:58.957Z,-9.21
2023-02-19T03:42:29.621Z,-9.22
2023-02-19T03:45:31.111Z,-9.23
2023-02-19T03:48:21.311Z,-9.23
2023-02-19T03:51:07.839Z,-9.23
2023-02-19T03:54:02.457Z,-9.22
2023-02-19T03:56:45.769Z,-9.25
2023-02-19T03:59:32.785Z,-9.26
2023-02-19T04:02:08.736Z,-9.26
2023-02-19T04:04:44.788Z,-9.20
2023-02-19T04:07:12.074Z,-9.20
2023-02-19T04:09:44.124Z,-9.17
2023-02-19T04:12:18.152Z,-9.17
2023-02-19T04:14:50.790Z,-9.13
2023-02-19T04:17:25.020Z,-9.11
2023-02-19T04:19:53.576Z,-9.09
2023-02-19T04:24:51.691Z,-9.15
2023-02-19T04:27:20.254Z,-9.18
2023-02-19T04:29:47.366Z,-9.20
2023-02-19T04:32:15.090Z,-9.12
2023-02-19T04:34:42.729Z,-9.13
2023-02-19T04:37:09.703Z,-9.11
2023-02-19T04:39:36.727Z,-9.18
2023-02-19T04:42:04.440Z,-9.20
2023-02-19T04:44:31.682Z,-9.20
2023-02-19T04:46:58.736Z,-9.13
2023-02-19T04:49:25.664Z,-9.10
2023-02-19T04:51:52.739Z,-9.12
2023-02-19T04:54:19.762Z,-9.08
2023-02-19T04:56:49.039Z,-9.09
2023-02-19T04:59:17.104Z,-9.10
2023-02-19T05:04:59.042Z,-9.11
2023-02-19T05:07:26.125Z,-9.16
2023-02-19T05:09:53.099Z,-9.07
2023-02-19T05:12:21.019Z,-9.05
2023-02-19T05:14:49.947Z,-9.04
2023-02-19T05:17:17.196Z,-9.04
2023-02-19T05:19:44.134Z,-9.05
2023-02-19T05:22:11.074Z,-9.08
2023-02-19T05:24:38.053Z,-9.05
2023-02-19T05:27:05.100Z,-9.03
2023-02-19T05:29:32.610Z,-8.97
2023-02-19T05:32:02.494Z,-8.97
2023-02-19T05:34:30.520Z,-8.92
2023-02-19T05:36:58.792Z,-8.87
2023-02-19T05:39:25.800Z,-8.88
2023-02-19T05:41:52.955Z,-8.91
2023-02-19T05:44:20.060Z,-8.87
2023-02-19T05:46:47.606Z,-8.76
2023-02-19T05:49:14.825Z,-8.79
2023-02-19T05:54:23.711Z,-8.76
2023-02-19T05:56:50.734Z,-8.81
2023-02-19T05:59:22.664Z,-8.81
2023-02-19T06:01:51.106Z,-8.68
2023-02-19T06:04:20.220Z,-8.64
2023-02-19T06:06:48.284Z,-8.56
2023-02-19T06:09:15.295Z,-8.59
2023-02-19T06:11:43.776Z,-8.61
2023-02-19T06:14:14.384Z,-8.56
2023-02-19T06:16:50.902Z,-8.47
2023-02-19T06:19:18.160Z,-8.28
2023-02-19T06:21:45.177Z,-8.19
2023-02-19T06:24:14.613Z,-8.26
2023-02-19T06:26:41.686Z,-8.26
2023-02-19T06:29:08.743Z,-8.25
2023-02-19T06:31:35.895Z,-8.19
2023-02-19T06:34:06.211Z,-8.04
2023-02-19T06:36:33.464Z,-7.98
2023-02-19T06:39:01.289Z,-8.01
2023-02-19T06:41:28.333Z,-8.11
2023-02-19T06:43:55.337Z,-8.05
2023-02-19T06:46:22.392Z,-7.92
2023-02-19T06:48:49.603Z,-7.92
2023-02-19T06:51:27.430Z,-7.85
2023-02-19T06:53:55.015Z,-7.97
2023-02-19T06:56:27.560Z,-8.27
2023-02-19T06:58:57.479Z,-8.38
2023-02-19T07:01:24.690Z,-8.42
2023-02-19T07:03:53.242Z,-8.43
2023-02-19T07:06:23.294Z,-8.50
2023-02-19T07:08:54.420Z,-8.36
2023-02-19T07:11:21.876Z,-8.26
2023-02-19T07:13:49.051Z,-8.29
2023-02-19T07:16:18.237Z,-8.36
2023-02-19T07:18:47.304Z,-8.36
2023-02-19T07:21:16.763Z,-8.35
2023-02-19T07:26:25.924Z,-8.16
2023-02-19T07:31:47.507Z,-8.26
2023-02-19T07:34:25.536Z,-8.34
2023-02-19T07:39:46.644Z,-7.95
2023-02-19T07:42:17.324Z,-8.05
2023-02-19T07:44:57.509Z,-8.25
2023-02-19T07:47:37.848Z,-8.08
2023-02-19T07:50:50.647Z,-7.90
2023-02-19T07:53:19.083Z,-7.88
2023-02-19T07:55:47.212Z,-7.77
2023-02-19T07:58:45.657Z,-7.86
2023-02-19T08:01:19.374Z,-7.46
2023-02-19T08:03:50.682Z,-7.41
2023-02-19T08:06:20.328Z,-7.44
2023-02-19T08:08:59.254Z,-7.44
2023-02-19T08:11:45.605Z,-7.46
2023-02-19T08:14:13.122Z,-7.55
2023-02-19T08:16:43.447Z,-7.68
2023-02-19T08:19:10.805Z,-7.51
2023-02-19T08:21:38.001Z,-7.37
2023-02-19T08:24:05.626Z,-7.53
2023-02-19T08:26:35.259Z,-7.65
2023-02-19T08:31:54.414Z,-7.72
2023-02-19T08:34:21.408Z,-7.79
2023-02-19T08:36:51.860Z,-7.72
2023-02-19T08:39:20.939Z,-7.80
2023-02-19T08:41:48.591Z,-7.79
2023-02-19T08:44:15.611Z,-7.68
2023-02-19T08:46:43.982Z,-7.55
2023-02-19T08:49:11.456Z,-7.41
2023-02-19T08:51:39.491Z,-7.35
2023-02-19T08:54:06.698Z,-7.25
2023-02-19T08:56:33.910Z,-7.16
2023-02-19T08:59:01.018Z,-7.05
2023-02-19T09:01:28.380Z,-6.94
2023-02-19T09:03:55.413Z,-7.00
2023-02-19T09:06:25.365Z,-6.92
2023-02-19T09:08:54.541Z,-7.05
2023-02-19T09:11:23.736Z,-7.33
2023-02-19T09:13:50.820Z,-7.21
2023-02-19T09:16:17.839Z,-7.05
2023-02-19T09:18:46.103Z,-6.81
2023-02-19T09:21:13.370Z,-6.72
2023-02-19T09:23:47.624Z,-6.69
2023-02-19T09:29:18.647Z,-6.56
2023-02-19T09:31:48.844Z,-6.71
2023-02-19T09:34:18.637Z,-6.76
2023-02-19T09:36:50.120Z,-6.62
2023-02-19T09:39:17.142Z,-6.51
2023-02-19T09:41:48.187Z,-6.54
2023-02-19T09:44:22.614Z,-6.58
2023-02-19T09:46:51.602Z,-6.59
2023-02-19T09:49:34.210Z,-6.41
2023-02-19T09:52:20.410Z,-6.60
2023-02-19T09:54:47.949Z,-6.62
2023-02-19T09:57:20.202Z,-6.64
2023-02-19T09:59:51.474Z,-6.51
2023-02-19T10:02:21.270Z,-6.43
2023-02-19T10:04:51.284Z,-6.67
2023-02-19T10:07:22.181Z,-6.62
2023-02-19T10:09:55.462Z,-6.52
2023-02-19T10:12:28.564Z,-6.44
2023-02-19T10:15:09.893Z,-6.37
2023-02-19T10:17:37.645Z,-6.27
2023-02-19T10:20:09.355Z,-6.58
2023-02-19T10:22:38.502Z,-6.50
2023-02-19T10:25:05.987Z,-6.27
2023-02-19T10:27:33.043Z,-6.13
2023-02-19T10:30:01.116Z,-5.82
2023-02-19T10:32:30.220Z,-5.59
2023-02-19T10:35:16.145Z,-5.60
2023-02-19T10:37:51.014Z,-5.61
2023-02-19T10:40:20.638Z,-5.44
2023-02-19T10:42:59.109Z,-5.30
2023-02-19T10:45:48.064Z,-5.20
2023-02-19T10:48:28.733Z,-4.69
2023-02-19T10:51:08.077Z,-4.34
2023-02-19T10:53:45.440Z,-4.00
2023-02-19T10:56:27.160Z,-3.90
2023-02-19T10:58:59.134Z,-4.38
2023-02-19T11:01:27.275Z,-4.56
2023-02-19T11:04:15.417Z,-4.42
2023-02-19T11:06:45.476Z,-4.29
2023-02-19T11:09:34.210Z,-4.80
2023-02-19T11:12:04.572Z,-4.90
2023-02-19T11:14:32.700Z,-4.65
2023-02-19T11:17:01.792Z,-4.10
2023-02-19T11:19:44.735Z,-4.59
2023-02-19T11:22:40.650Z,-4.99
2023-02-19T11:25:14.603Z,-5.11
2023-02-19T11:28:31.201Z,-5.27
2023-02-19T11:31:26.857Z,-5.28
2023-02-19T11:34:06.506Z,-4.93
2023-02-19T11:36:37.997Z,-4.37
2023-02-19T11:39:20.976Z,-3.79
2023-02-19T11:42:12.441Z,-3.60
2023-02-19T11:45:24.476Z,-3.31
2023-02-19T11:48:01.098Z,-3.11
2023-02-19T11:50:56.984Z,-4.14
2023-02-19T11:53:28.002Z,-4.61
2023-02-19T11:56:17.201Z,-4.82
2023-02-19T11:59:00.643Z,-5.23
2023-02-19T12:01:58.398Z,-5.73
2023-02-19T12:04:43.956Z,-5.91
2023-02-19T12:07:34.572Z,-5.96
2023-02-19T12:10:20.360Z,-5.98
2023-02-19T12:13:31.532Z,-6.08
2023-02-19T12:16:24.162Z,-6.06
2023-02-19T12:19:08.463Z,-6.01
2023-02-19T12:22:05.302Z,-6.25
2023-02-19T12:24:51.567Z,-6.30
2023-02-19T12:27:32.233Z,-6.26
2023-02-19T12:30:05.544Z,-6.29
2023-02-19T12:32:50.146Z,-6.31
2023-02-19T12:35:43.688Z,-6.23
2023-02-19T12:38:29.661Z,-6.20
2023-02-19T12:41:27.948Z,-6.32
2023-02-19T12:44:19.196Z,-6.43
2023-02-19T12:46:53.438Z,-6.62
2023-02-19T12:49:30.531Z,-6.65
2023-02-19T12:52:02.377Z,-6.63
2023-02-19T12:54:39.969Z,-6.61
2023-02-19T12:57:12.889Z,-6.64
2023-02-19T12:59:50.238Z,-6.71
2023-02-19T13:02:39.153Z,-6.71
2023-02-19T13:05:14.537Z,-6.73
2023-02-19T13:08:06.802Z,-6.70
2023-02-19T13:14:04.827Z,-6.78
2023-02-19T13:16:34.787Z,-6.78
2023-02-19T13:19:04.091Z,-6.73
2023-02-19T13:21:53.127Z,-6.65
2023-02-19T13:24:31.117Z,-6.65
2023-02-19T13:27:32.009Z,-6.67
2023-02-19T13:30:21.036Z,-6.61
2023-02-19T13:33:05.465Z,-6.54
2023-02-19T13:35:54.205Z,-6.64
2023-02-19T13:38:21.378Z,-6.84
2023-02-19T13:40:56.610Z,-6.70
2023-02-19T13:43:54.233Z,-6.72
2023-02-19T13:46:21.881Z,-6.74
2023-02-19T13:48:54.239Z,-6.70
2023-02-19T13:51:24.118Z,-6.71
2023-02-19T13:53:59.253Z,-6.81
2023-02-19T13:56:35.372Z,-6.72
2023-02-19T13:59:13.762Z,-6.86
2023-02-19T14:01:55.950Z,-6.87
2023-02-19T14:04:53.929Z,-6.88
2023-02-19T14:07:34.246Z,-6.93
2023-02-19T14:10:02.165Z,-7.12
2023-02-19T14:12:35.998Z,-7.10
2023-02-19T14:15:24.998Z,-7.09
2023-02-19T14:17:58.085Z,-7.08
2023-02-19T14:20:45.209Z,-7.13
2023-02-19T14:23:17.842Z,-7.14
2023-02-19T14:25:49.083Z,-7.26
2023-02-19T14:28:21.795Z,-7.31
2023-02-19T14:30:51.515Z,-7.37
2023-02-19T14:33:24.091Z,-7.47
2023-02-19T14:35:58.580Z,-7.42
2023-02-19T14:39:10.026Z,-7.37
2023-02-19T14:41:40.803Z,-7.39
2023-02-19T14:44:17.454Z,-7.44
2023-02-19T14:47:09.852Z,-7.42
2023-02-19T14:50:02.113Z,-7.44
2023-02-19T14:52:36.963Z,-7.54
2023-02-19T14:55:14.431Z,-7.61
2023-02-19T14:57:46.276Z,-7.57
2023-02-19T15:00:24.207Z,-7.51
2023-02-19T15:02:53.364Z,-7.44
2023-02-19T15:05:30.687Z,-7.40
2023-02-19T15:08:01.318Z,-7.47
2023-02-19T15:10:29.845Z,-7.50
2023-02-19T15:13:02.232Z,-7.59
2023-02-19T15:15:43.172Z,-7.47
2023-02-19T15:18:36.992Z,-7.61
2023-02-19T15:23:59.052Z,-7.63
2023-02-19T15:26:46.516Z,-7.51
2023-02-19T15:29:35.760Z,-7.64
2023-02-19T15:32:20.156Z,-7.59
2023-02-19T15:34:57.974Z,-7.56
2023-02-19T15:37:27.322Z,-7.55
2023-02-19T15:39:55.149Z,-7.54
2023-02-19T15:42:33.925Z,-7.49
2023-02-19T15:45:12.994Z,-7.52
2023-02-19T15:47:54.334Z,-7.51
2023-02-19T15:50:28.828Z,-7.54
2023-02-19T15:53:19.392Z,-7.53
2023-02-19T15:56:30.564Z,-7.65
2023-02-19T15:59:24.740Z,-7.61
2023-02-19T16:01:52.334Z,-7.62
2023-02-19T16:04:20.455Z,-7.59
2023-02-19T16:07:01.592Z,-7.55
2023-02-19T16:09:31.726Z,-7.57
2023-02-19T16:12:03.143Z,-7.60
2023-02-19T16:14:47.699Z,-7.64
2023-02-19T16:17:17.678Z,-7.64
2023-02-19T16:20:03.498Z,-7.55
2023-02-19T16:23:31.864Z,-7.58
2023-02-19T16:26:08.683Z,-7.69
2023-02-19T16:28:53.000Z,-7.60
2023-02-19T16:31:31.671Z,-7.58
2023-02-19T16:34:18.186Z,-7.67
2023-02-19T16:36:48.901Z,-7.65
2023-02-19T16:39:18.116Z,-7.59
2023-02-19T16:41:48.376Z,-7.55
2023-02-19T16:44:21.811Z,-7.60
2023-02-19T16:46:54.643Z,-7.71
2023-02-19T16:49:28.171Z,-7.63
2023-02-19T16:51:56.598Z,-7.80
2023-02-19T16:54:23.974Z,-7.72
2023-02-19T16:56:51.158Z,-7.67
2023-02-19T16:59:18.624Z,-7.68
2023-02-19T17:01:45.924Z,-7.67
2023-02-19T17:04:15.606Z,-7.69
2023-02-19T17:06:46.765Z,-7.75
2023-02-19T17:09:17.251Z,-7.75
2023-02-19T17:11:44.193Z,-7.71
2023-02-19T17:14:13.364Z,-7.75
2023-02-19T17:16:44.585Z,-7.76
2023-02-19T17:19:14.616Z,-7.74
2023-02-19T17:21:42.278Z,-7.73
2023-02-19T17:24:10.030Z,-7.70
2023-02-19T17:26:50.430Z,-7.65
2023-02-19T17:29:18.635Z,-7.68
2023-02-19T17:31:48.590Z,-7.80
2023-02-19T17:34:15.661Z,-7.82
2023-02-19T17:37:08.370Z,-7.59
2023-02-19T17:39:42.370Z,-7.58
2023-02-19T17:42:13.400Z,-7.57
2023-02-19T17:44:40.899Z,-7.58
2023-02-19T17:47:07.932Z,-7.54
2023-02-19T17:49:36.565Z,-7.57
2023-02-19T17:52:04.738Z,-7.59
2023-02-19T17:54:31.832Z,-7.60
2023-02-19T17:57:00.546Z,-7.51
2023-02-19T17:59:31.768Z,-7.50
2023-02-19T18:01:58.863Z,-7.45
2023-02-19T18:04:27.623Z,-7.53
2023-02-19T18:06:56.038Z,-7.51
2023-02-19T18:09:23.187Z,-7.53
2023-02-19T18:11:50.414Z,-7.49
2023-02-19T18:14:20.637Z,-7.47
2023-02-19T18:16:50.293Z,-7.46
2023-02-19T18:19:18.468Z,-7.55
2023-02-19T18:21:52.166Z,-7.52
2023-02-19T18:24:19.821Z,-7.57
2023-02-19T18:26:49.387Z,-7.41
2023-02-19T18:29:20.251Z,-7.37
2023-02-19T18:31:47.603Z,-7.43
2023-02-19T18:34:19.284Z,-7.34
2023-02-19T18:36:47.347Z,-7.36
2023-02-19T18:39:15.438Z,-7.43
2023-02-19T18:41:48.000Z,-7.41
2023-02-19T18:44:18.854Z,-7.45
2023-02-19T18:46:45.920Z,-7.51
2023-02-19T18:49:13.199Z,-7.44
2023-02-19T18:51:40.379Z,-7.41
2023-02-19T18:54:08.102Z,-7.46
2023-02-19T18:56:46.091Z,-7.41
2023-02-19T18:59:13.911Z,-7.53
2023-02-19T19:01:43.471Z,-7.43
2023-02-19T19:04:11.873Z,-7.47
2023-02-19T19:06:39.110Z,-7.47
2023-02-19T19:09:06.959Z,-7.39
2023-02-19T19:11:39.118Z,-7.51
2023-02-19T19:14:06.371Z,-7.49
2023-02-19T19:16:33.563Z,-7.43
2023-02-19T19:19:05.312Z,-7.42
2023-02-19T19:21:32.509Z,-7.38
2023-02-19T19:23:59.617Z,-7.47
2023-02-19T19:26:27.674Z,-7.40
2023-02-19T19:28:54.827Z,-7.41
2023-02-19T19:31:22.670Z,-7.37
2023-02-19T19:33:49.869Z,-7.38
2023-02-19T19:36:22.663Z,-7.43
2023-02-19T19:38:52.819Z,-7.43
2023-02-19T19:41:23.154Z,-7.45
2023-02-19T19:43:51.062Z,-7.39
2023-02-19T19:46:20.854Z,-7.42
2023-02-19T19:48:50.064Z,-7.34
2023-02-19T19:51:17.660Z,-7.44
2023-02-19T19:53:48.283Z,-7.39
2023-02-19T19:56:16.112Z,-7.44
2023-02-19T19:58:43.103Z,-7.39
2023-02-19T20:01:10.520Z,-7.34
2023-02-19T20:03:39.633Z,-7.35
2023-02-19T20:06:06.920Z,-7.37
2023-02-19T20:08:33.937Z,-7.35
2023-02-19T20:11:03.409Z,-7.38
2023-02-19T20:13:32.789Z,-7.37
2023-02-19T20:16:02.548Z,-7.31
2023-02-19T20:18:30.594Z,-7.32
2023-02-19T20:20:57.595Z,-7.33
2023-02-19T20:23:27.132Z,-7.33
2023-02-19T20:25:56.303Z,-7.31
2023-02-19T20:28:23.410Z,-7.35
2023-02-19T20:30:50.543Z,-7.36
2023-02-19T20:33:17.575Z,-7.32
2023-02-19T20:35:44.512Z,-7.32
2023-02-19T20:38:15.344Z,-7.33
2023-02-19T20:40:42.344Z,-7.33
2023-02-19T20:43:09.429Z,-7.33
2023-02-19T20:45:36.500Z,-7.31
2023-02-19T20:48:03.530Z,-7.31
2023-02-19T20:50:30.532Z,-7.30
2023-02-19T20:52:57.613Z,-7.26
2023-02-19T20:55:26.045Z,-7.27
2023-02-19T20:57:53.077Z,-7.27
2023-02-19T21:00:20.739Z,-7.27
2023-02-19T21:02:48.480Z,-7.30
2023-02-19T21:05:17.784Z,-7.30
2023-02-19T21:07:44.810Z,-7.25
2023-02-19T21:10:12.452Z,-7.24
2023-02-19T21:12:42.191Z,-7.24
2023-02-19T21:15:09.757Z,-7.27
2023-02-19T21:17:37.181Z,-7.20
2023-02-19T21:20:05.228Z,-7.15
2023-02-19T21:22:32.381Z,-7.13
2023-02-19T21:24:59.309Z,-7.15
2023-02-19T21:27:26.276Z,-7.18
2023-02-19T21:29:53.255Z,-7.16
2023-02-19T21:32:24.268Z,-7.16
2023-02-19T21:34:51.401Z,-7.10
2023-02-19T21:37:18.343Z,-7.08
2023-02-19T21:39:45.437Z,-7.10
2023-02-19T21:42:12.458Z,-7.07
2023-02-19T21:44:39.903Z,-7.05
2023-02-19T21:47:07.886Z,-7.05
2023-02-19T21:49:34.859Z,-7.04
2023-02-19T21:52:02.084Z,-7.06
2023-02-19T21:54:29.054Z,-7.03
2023-02-19T21:56:56.080Z,-7.03
2023-02-19T21:59:23.769Z,-7.07
2023-02-19T22:01:51.794Z,-7.07
2023-02-19T22:04:27.369Z,-7.05
2023-02-19T22:06:55.716Z,-7.06
2023-02-19T22:09:22.915Z,-7.05
2023-02-19T22:11:49.876Z,-7.10
2023-02-19T22:14:16.960Z,-7.12
2023-02-19T22:16:44.040Z,-7.14
2023-02-19T22:19:12.424Z,-7.12
2023-02-19T22:21:43.695Z,-7.09
2023-02-19T22:24:16.716Z,-7.11
2023-02-19T22:26:44.958Z,-7.11
2023-02-19T22:29:18.151Z,-7.11
2023-02-19T22:31:45.283Z,-7.16
2023-02-19T22:34:12.534Z,-7.18
2023-02-19T22:36:40.486Z,-7.16
2023-02-19T22:39:15.281Z,-7.21
2023-02-19T22:41:43.138Z,-7.19
2023-02-19T22:44:10.814Z,-7.24
2023-02-19T22:46:37.967Z,-7.24
2023-02-19T22:49:06.287Z,-7.24
2023-02-19T22:51:35.633Z,-7.21
2023-02-19T22:54:07.771Z,-7.15
2023-02-19T22:56:34.931Z,-7.20
2023-02-19T22:59:01.942Z,-7.14
2023-02-19T23:01:29.015Z,-7.13
2023-02-19T23:03:58.160Z,-7.12
2023-02-19T23:06:30.761Z,-7.14
2023-02-19T23:09:03.742Z,-7.12
2023-02-19T23:11:33.605Z,-7.07
2023-02-19T23:14:01.722Z,-7.01
2023-02-19T23:16:29.025Z,-7.04
2023-02-19T23:18:56.154Z,-7.04
2023-02-19T23:21:23.531Z,-7.01
2023-02-19T23:23:50.588Z,-7.01
2023-02-19T23:26:17.933Z,-6.96
2023-02-19T23:28:45.288Z,-6.95
2023-02-19T23:31:13.154Z,-6.98
2023-02-19T23:33:40.600Z,-6.94
2023-02-19T23:36:08.449Z,-6.93
2023-02-19T23:38:35.559Z,-6.91
2023-02-19T23:41:02.646Z,-6.88
2023-02-19T23:43:29.662Z,-6.88
2023-02-19T23:45:57.232Z,-6.91
2023-02-19T23:48:27.009Z,-6.89
2023-02-19T23:50:54.041Z,-6.89
2023-02-19T23:53:21.105Z,-6.87
2023-02-19T23:55:48.087Z,-6.87
2023-02-19T23:58:18.381Z,-6.90
